createdAt,value
2018-01-31T01:53:02.291Z,101487.64
2018-01-31T01:55:29.901Z,101473.80
2018-01-31T01:57:57.872Z,101471.69
2018-01-31T02:00:25.511Z,101474.66
2018-01-31T02:02:53.103Z,101469.80
2018-01-31T02:05:20.731Z,101460.81
2018-01-31T02:07:48.366Z,101455.28
2018-01-31T02:10:15.932Z,101446.52
2018-01-31T02:12:43.497Z,101433.95
2018-01-31T02:15:11.085Z,101438.66
2018-01-31T02:17:38.735Z,101430.95
2018-01-31T02:20:06.292Z,101426.20
2018-01-31T02:22:33.918Z,101425.78
2018-01-31T02:25:01.556Z,101416.85
2018-01-31T02:27:29.110Z,101408.52
2018-01-31T02:29:56.723Z,101403.29
2018-01-31T02:32:24.292Z,101400.48
2018-01-31T02:34:51.916Z,101393.05
2018-01-31T02:37:19.488Z,101392.48
2018-01-31T02:39:58.006Z,101388.94
2018-01-31T02:42:25.662Z,101383.02
2018-01-31T02:44:53.228Z,101374.67
2018-01-31T02:47:21.131Z,101363.76
2018-01-31T02:49:48.733Z,101356.32
2018-01-31T02:52:16.333Z,101352.89
2018-01-31T02:54:43.959Z,101350.45
2018-01-31T02:57:11.892Z,101344.61
2018-01-31T02:59:39.551Z,101343.44
2018-01-31T03:02:07.150Z,101335.27
2018-01-31T03:04:34.812Z,101328.25
2018-01-31T03:07:02.392Z,101328.47
2018-01-31T03:09:30.043Z,101322.72
2018-01-31T03:11:57.612Z,101325.27
2018-01-31T03:14:25.521Z,101335.28
2018-01-31T03:16:53.086Z,101331.06
2018-01-31T03:19:20.949Z,101331.49
2018-01-31T03:21:48.522Z,101321.77
2018-01-31T03:24:16.374Z,101325.52
2018-01-31T03:26:43.960Z,101318.81
2018-01-31T03:29:11.799Z,101311.39
2018-01-31T03:31:39.375Z,101307.06
2018-01-31T03:34:07.064Z,101302.37
2018-01-31T03:36:34.648Z,101293.92
2018-01-31T03:39:02.253Z,101289.03
2018-01-31T03:41:29.859Z,101282.13
2018-01-31T03:43:57.442Z,101277.27
2018-01-31T03:46:25.078Z,101273.48
2018-01-31T03:48:52.646Z,101264.52
2018-01-31T03:51:20.402Z,101249.59
2018-01-31T03:53:48.037Z,101248.53
2018-01-31T03:56:15.663Z,101242.27
2018-01-31T03:58:43.255Z,101245.58
2018-01-31T04:01:11.125Z,101246.16
2018-01-31T04:03:38.753Z,101249.27
2018-01-31T04:06:06.324Z,101243.16
2018-01-31T04:08:33.943Z,101249.91
2018-01-31T04:11:01.583Z,101245.41
2018-01-31T04:13:29.165Z,101240.75
2018-01-31T04:15:56.749Z,101246.02
2018-01-31T04:18:24.346Z,101237.04
2018-01-31T04:20:52.235Z,101241.16
2018-01-31T04:23:20.085Z,101222.49
2018-01-31T04:25:47.715Z,101219.23
2018-01-31T04:28:15.282Z,101205.48
2018-01-31T04:30:42.900Z,101199.84
2018-01-31T04:33:10.485Z,101193.83
2018-01-31T04:35:38.206Z,101186.66
2018-01-31T04:38:06.066Z,101181.80
2018-01-31T04:40:33.627Z,101172.95
2018-01-31T04:43:01.494Z,101168.80
2018-01-31T04:45:29.357Z,101162.65
2018-01-31T04:47:56.963Z,101158.05
2018-01-31T04:50:24.583Z,101149.82
2018-01-31T04:52:52.166Z,101147.96
2018-01-31T04:55:20.018Z,101143.30
2018-01-31T04:57:47.591Z,101140.13
2018-01-31T05:00:15.209Z,101134.13
2018-01-31T05:02:42.779Z,101130.37
2018-01-31T05:05:10.490Z,101116.83
2018-01-31T05:07:38.330Z,101105.48
2018-01-31T05:10:05.906Z,101089.07
2018-01-31T05:12:33.539Z,101083.30
2018-01-31T05:15:01.149Z,101078.47
2018-01-31T05:17:28.726Z,101068.88
2018-01-31T05:19:56.463Z,101066.00
2018-01-31T05:22:24.029Z,101054.39
2018-01-31T05:24:51.614Z,101040.42
2018-01-31T05:27:19.236Z,101031.56
2018-01-31T05:29:46.816Z,101025.05
2018-01-31T05:32:14.423Z,101016.93
2018-01-31T05:34:41.995Z,101017.86
2018-01-31T05:37:09.574Z,101013.72
2018-01-31T05:39:37.444Z,101005.93
2018-01-31T05:42:05.029Z,101008.43
2018-01-31T05:44:32.637Z,101015.27
2018-01-31T05:47:00.230Z,101006.65
2018-01-31T05:49:27.847Z,100993.47
2018-01-31T05:51:55.462Z,100993.88
2018-01-31T05:54:23.315Z,100980.73
2018-01-31T05:56:50.882Z,100978.75
2018-01-31T05:59:18.464Z,100961.98
2018-01-31T06:01:46.261Z,100961.63
2018-01-31T06:04:13.849Z,100952.55
2018-01-31T06:06:41.447Z,100943.31
2018-01-31T06:09:09.013Z,100941.43
2018-01-31T06:11:36.598Z,100935.02
2018-01-31T06:14:04.172Z,100919.94
2018-01-31T06:16:31.759Z,100914.06
2018-01-31T06:18:59.322Z,100920.69
2018-01-31T06:21:27.205Z,100915.14
2018-01-31T06:23:54.744Z,100915.80
2018-01-31T06:26:22.315Z,100911.87
2018-01-31T06:28:49.885Z,100905.81
2018-01-31T06:31:17.451Z,100899.77
2018-01-31T06:33:45.031Z,100886.95
2018-01-31T06:36:12.613Z,100886.07
2018-01-31T06:38:40.192Z,100878.86
2018-01-31T06:41:07.882Z,100875.70
2018-01-31T06:43:35.475Z,100876.53
2018-01-31T06:46:03.089Z,100862.69
2018-01-31T06:48:30.985Z,100865.41
2018-01-31T06:50:58.634Z,100860.78
2018-01-31T06:53:26.237Z,100857.53
2018-01-31T06:55:53.806Z,100854.77
2018-01-31T06:58:21.639Z,100837.08
2018-01-31T07:00:49.236Z,100833.13
2018-01-31T07:03:17.161Z,100828.92
2018-01-31T07:05:44.839Z,100816.76
2018-01-31T07:08:12.696Z,100814.23
2018-01-31T07:10:40.282Z,100810.77
2018-01-31T07:13:07.868Z,100798.77
2018-01-31T07:15:35.468Z,100786.42
2018-01-31T07:18:03.006Z,100789.95
2018-01-31T07:20:30.594Z,100789.84
2018-01-31T07:22:58.161Z,100783.89
2018-01-31T07:25:25.740Z,100772.63
2018-01-31T07:27:53.396Z,100765.06
2018-01-31T07:30:21.109Z,100754.94
2018-01-31T07:32:48.717Z,100741.72
2018-01-31T07:35:16.306Z,100740.92
2018-01-31T07:37:43.930Z,100734.73
2018-01-31T07:40:11.806Z,100727.23
2018-01-31T07:42:39.353Z,100722.11
2018-01-31T07:45:06.892Z,100716.22
2018-01-31T07:47:34.450Z,100706.07
2018-01-31T07:50:02.011Z,100695.70
2018-01-31T07:52:29.532Z,100691.61
2018-01-31T07:54:57.090Z,100683.76
2018-01-31T07:57:24.601Z,100681.25
2018-01-31T07:59:52.188Z,100671.69
2018-01-31T08:02:19.769Z,100670.70
2018-01-31T08:04:47.337Z,100668.33
2018-01-31T08:07:15.989Z,100672.03
2018-01-31T08:09:43.692Z,100668.61
2018-01-31T08:12:11.392Z,100666.80
2018-01-31T08:14:38.998Z,100649.15
2018-01-31T08:17:06.553Z,100649.77
2018-01-31T08:19:34.184Z,100647.59
2018-01-31T08:22:01.723Z,100638.36
2018-01-31T08:24:29.305Z,100633.53
2018-01-31T08:26:56.856Z,100624.89
2018-01-31T08:29:24.654Z,100623.14
2018-01-31T08:31:52.221Z,100616.04
2018-01-31T08:34:20.653Z,100606.91
2018-01-31T08:36:48.217Z,100593.23
2018-01-31T08:39:15.758Z,100593.69
2018-01-31T08:41:43.341Z,100586.18
2018-01-31T08:44:11.139Z,100574.45
2018-01-31T08:46:38.700Z,100578.31
2018-01-31T08:49:06.337Z,100563.59
2018-01-31T08:51:34.472Z,100557.12
2018-01-31T08:54:02.634Z,100556.02
2018-01-31T08:56:30.176Z,100548.19
2018-01-31T08:58:57.794Z,100535.28
2018-01-31T09:01:25.325Z,100532.06
2018-01-31T09:03:53.160Z,100525.48
2018-01-31T09:06:20.687Z,100519.88
2018-01-31T09:08:48.235Z,100503.90
2018-01-31T09:11:16.147Z,100502.88
2018-01-31T09:13:44.019Z,100501.73
2018-01-31T09:16:11.538Z,100494.61
2018-01-31T09:18:39.294Z,100493.65
2018-01-31T09:21:06.859Z,100503.48
2018-01-31T09:23:34.431Z,100496.01
2018-01-31T09:26:01.978Z,100485.38
2018-01-31T09:28:29.794Z,100488.34
2018-01-31T09:30:57.434Z,100474.60
2018-01-31T09:33:25.296Z,100478.94
2018-01-31T09:35:52.839Z,100448.27
2018-01-31T09:38:20.455Z,100455.86
2018-01-31T09:40:47.978Z,100457.94
2018-01-31T09:43:15.567Z,100449.30
2018-01-31T09:45:43.089Z,100447.09
2018-01-31T09:48:10.680Z,100445.13
2018-01-31T09:50:38.198Z,100434.08
2018-01-31T09:53:05.738Z,100420.28
2018-01-31T09:55:33.262Z,100427.46
2018-01-31T09:58:00.965Z,100419.86
2018-01-31T10:00:28.485Z,100408.64
2018-01-31T10:02:56.046Z,100412.21
2018-01-31T10:05:23.917Z,100407.27
2018-01-31T10:07:51.518Z,100410.61
2018-01-31T10:10:19.348Z,100404.88
2018-01-31T10:12:47.270Z,100390.97
2018-01-31T10:15:14.801Z,100389.14
2018-01-31T10:17:42.361Z,100387.05
2018-01-31T10:20:10.130Z,100382.69
2018-01-31T10:22:37.753Z,100376.94
2018-01-31T10:25:05.631Z,100381.25
2018-01-31T10:27:33.173Z,100368.43
2018-01-31T10:30:00.753Z,100359.74
2018-01-31T10:32:28.623Z,100353.09
2018-01-31T10:34:56.266Z,100342.98
2018-01-31T10:37:23.804Z,100327.19
2018-01-31T10:39:51.418Z,100329.64
2018-01-31T10:42:18.950Z,100323.06
2018-01-31T10:44:46.561Z,100312.92
2018-01-31T10:47:14.164Z,100309.48
2018-01-31T10:49:41.827Z,100299.95
2018-01-31T10:52:09.346Z,100298.20
2018-01-31T10:57:28.883Z,100281.02
2018-01-31T10:59:32.036Z,100278.80
2018-01-31T11:01:59.570Z,100270.70
2018-01-31T11:04:27.140Z,100265.40
2018-01-31T11:06:54.660Z,100257.03
2018-01-31T11:09:22.191Z,100254.56
2018-01-31T11:11:49.719Z,100250.01
2018-01-31T11:14:17.370Z,100249.69
2018-01-31T11:16:44.895Z,100234.78
2018-01-31T11:19:12.787Z,100225.36
2018-01-31T11:21:40.341Z,100223.13
2018-01-31T11:24:07.936Z,100214.84
2018-01-31T11:26:35.459Z,100211.28
2018-01-31T11:29:03.048Z,100207.38
2018-01-31T11:31:30.611Z,100200.25
2018-01-31T11:33:58.456Z,100189.87
2018-01-31T11:36:25.985Z,100181.09
2018-01-31T11:38:53.540Z,100180.67
2018-01-31T11:41:21.348Z,100161.60
2018-01-31T11:43:48.933Z,100168.55
2018-01-31T11:46:16.468Z,100155.16
2018-01-31T11:48:44.038Z,100150.22
2018-01-31T11:51:11.583Z,100147.06
2018-01-31T11:53:39.141Z,100156.69
2018-01-31T11:56:07.765Z,100140.84
2018-01-31T11:58:35.287Z,100133.55
2018-01-31T12:01:02.869Z,100122.66
2018-01-31T12:03:30.718Z,100127.17
2018-01-31T12:05:58.269Z,100108.42
2018-01-31T12:08:25.846Z,100097.36
2018-01-31T12:10:53.396Z,100088.22
2018-01-31T12:13:33.111Z,100083.69
2018-01-31T12:16:12.422Z,100071.41
2018-01-31T12:18:52.034Z,100070.19
2018-01-31T12:21:31.414Z,100056.91
2018-01-31T12:24:10.896Z,100046.31
2018-01-31T12:26:50.303Z,100049.22
2018-01-31T12:29:29.709Z,100041.09
2018-01-31T12:32:08.992Z,100028.13
2018-01-31T12:34:48.671Z,100024.02
2018-01-31T12:37:28.007Z,100017.13
2018-01-31T12:39:55.068Z,100017.53
2018-01-31T12:42:22.069Z,100006.94
2018-01-31T12:44:49.087Z,100011.91
2018-01-31T12:47:28.355Z,100005.34
2018-01-31T12:50:08.034Z,100000.95
2018-01-31T12:52:47.494Z,100000.20
2018-01-31T12:55:26.978Z,99986.12
2018-01-31T12:58:06.437Z,99980.87
2018-01-31T13:00:45.948Z,99965.98
2018-01-31T13:03:31.340Z,99958.14
2018-01-31T13:06:10.633Z,99958.93
2018-01-31T13:08:49.930Z,99957.09
2018-01-31T13:11:29.382Z,99949.52
2018-01-31T13:14:08.709Z,99947.13
2018-01-31T13:16:48.063Z,99950.37
2018-01-31T13:19:18.400Z,99944.14
2018-01-31T13:21:58.130Z,99944.88
2018-01-31T13:24:37.615Z,99932.94
2018-01-31T13:27:17.176Z,99926.63
2018-01-31T13:33:20.218Z,99913.03
2018-01-31T13:35:59.711Z,99907.16
2018-01-31T13:38:39.045Z,99902.08
2018-01-31T13:41:18.438Z,99894.70
2018-01-31T13:43:58.285Z,99888.82
2018-01-31T13:46:37.679Z,99880.17
2018-01-31T13:49:17.077Z,99870.66
2018-01-31T13:51:56.525Z,99877.80
2018-01-31T13:54:35.909Z,99876.48
2018-01-31T13:57:15.416Z,99860.94
2018-01-31T13:59:54.890Z,99851.56
2018-01-31T14:02:34.432Z,99855.41
2018-01-31T14:05:14.011Z,99848.58
2018-01-31T14:07:53.392Z,99843.64
2018-01-31T14:10:32.848Z,99842.99
2018-01-31T14:13:12.269Z,99833.30
2018-01-31T14:15:51.839Z,99823.03
2018-01-31T14:18:31.026Z,99820.00
2018-01-31T14:21:10.560Z,99814.30
2018-01-31T14:23:49.977Z,99815.30
2018-01-31T14:26:29.319Z,99809.34
2018-01-31T14:29:08.672Z,99806.09
2018-01-31T14:31:48.289Z,99805.73
2018-01-31T14:34:27.685Z,99798.99
2018-01-31T14:36:54.686Z,99800.25
2018-01-31T14:39:21.692Z,99788.61
2018-01-31T14:41:48.700Z,99790.58
2018-01-31T14:44:15.924Z,99794.06
2018-01-31T14:46:42.930Z,99787.93
2018-01-31T14:49:09.956Z,99784.91
2018-01-31T14:51:36.996Z,99764.87
2018-01-31T14:54:03.990Z,99771.03
2018-01-31T14:56:31.026Z,99766.03
2018-01-31T14:58:58.054Z,99769.01
2018-01-31T15:01:25.070Z,99768.97
2018-01-31T15:03:52.301Z,99764.43
2018-01-31T15:06:19.285Z,99759.98
2018-01-31T15:08:46.285Z,99752.09
2018-01-31T15:11:13.539Z,99750.44
2018-01-31T15:13:40.601Z,99744.30
2018-01-31T15:16:07.963Z,99738.37
2018-01-31T15:18:34.962Z,99733.01
2018-01-31T15:21:01.954Z,99723.19
2018-01-31T15:23:28.976Z,99708.98
2018-01-31T15:25:55.970Z,99712.84
2018-01-31T15:28:22.996Z,99703.34
2018-01-31T15:30:49.979Z,99701.27
2018-01-31T15:33:16.973Z,99688.60
2018-01-31T15:35:43.994Z,99690.53
2018-01-31T15:38:11.026Z,99685.31
2018-01-31T15:40:38.034Z,99679.71
2018-01-31T15:43:05.061Z,99681.09
2018-01-31T15:45:32.095Z,99672.18
2018-01-31T15:47:59.107Z,99666.95
2018-01-31T15:50:26.381Z,99676.77
2018-01-31T15:52:53.407Z,99669.24
2018-01-31T15:55:20.428Z,99655.84
2018-01-31T15:57:47.575Z,99653.19
2018-01-31T16:00:14.559Z,99644.56
2018-01-31T16:02:41.575Z,99645.06
2018-01-31T16:05:08.836Z,99643.84
2018-01-31T16:07:35.843Z,99630.53
2018-01-31T16:10:02.872Z,99635.53
2018-01-31T16:12:29.893Z,99621.91
2018-01-31T16:14:56.917Z,99624.38
2018-01-31T16:17:24.463Z,99624.16
2018-01-31T16:20:03.901Z,99617.83
2018-01-31T16:22:31.435Z,99612.09
2018-01-31T16:24:59.004Z,99605.44
2018-01-31T16:27:26.607Z,99599.11
2018-01-31T16:30:13.010Z,99603.31
2018-01-31T16:32:52.530Z,99590.84
2018-01-31T16:35:20.083Z,99581.72
2018-01-31T16:37:47.638Z,99586.30
2018-01-31T16:40:15.168Z,99576.08
2018-01-31T16:42:42.694Z,99571.07
2018-01-31T16:45:10.249Z,99571.95
2018-01-31T16:47:37.833Z,99568.06
2018-01-31T16:50:05.365Z,99556.15
2018-01-31T16:52:32.954Z,99549.50
2018-01-31T16:55:00.541Z,99541.70
2018-01-31T16:57:28.062Z,99545.64
2018-01-31T16:59:55.940Z,99545.73
2018-01-31T17:02:23.494Z,99535.98
2018-01-31T17:04:51.002Z,99542.53
2018-01-31T17:07:18.678Z,99529.23
2018-01-31T17:09:46.185Z,99507.03
2018-01-31T17:12:13.713Z,99512.67
2018-01-31T17:14:41.608Z,99508.33
2018-01-31T17:17:09.139Z,99506.69
2018-01-31T17:19:37.044Z,99505.04
2018-01-31T17:22:04.560Z,99505.36
2018-01-31T17:24:32.609Z,99504.72
2018-01-31T17:27:00.431Z,99509.03
2018-01-31T17:29:27.999Z,99500.13
2018-01-31T17:31:55.608Z,99494.52
2018-01-31T17:34:23.240Z,99496.17
2018-01-31T17:36:50.780Z,99497.41
2018-01-31T17:39:18.394Z,99485.72
2018-01-31T17:41:45.969Z,99481.23
2018-01-31T17:44:13.545Z,99476.51
2018-01-31T17:46:41.107Z,99487.47
2018-01-31T17:49:08.628Z,99474.48
2018-01-31T17:51:37.139Z,99470.49
2018-01-31T17:54:04.732Z,99457.19
2018-01-31T17:56:32.298Z,99461.09
2018-01-31T17:58:59.845Z,99455.58
2018-01-31T18:01:28.230Z,99456.17
2018-01-31T18:03:55.793Z,99450.66
2018-01-31T18:06:23.492Z,99454.97
2018-01-31T18:08:51.015Z,99443.80
2018-01-31T18:11:18.546Z,99436.34
2018-01-31T18:13:47.040Z,99437.48
2018-01-31T18:16:14.787Z,99432.26
2018-01-31T18:18:42.298Z,99430.11
2018-01-31T18:21:10.137Z,99422.64
2018-01-31T18:23:37.911Z,99412.28
2018-01-31T18:26:05.722Z,99408.10
2018-01-31T18:28:33.252Z,99405.13
2018-01-31T18:31:00.804Z,99406.55
2018-01-31T18:33:28.422Z,99409.84
2018-01-31T18:35:55.962Z,99401.67
2018-01-31T18:38:23.509Z,99395.53
2018-01-31T18:40:51.053Z,99400.97
2018-01-31T18:43:18.570Z,99393.18
2018-01-31T18:45:46.160Z,99397.77
2018-01-31T18:48:14.021Z,99413.13
2018-01-31T18:50:41.596Z,99391.44
2018-01-31T18:53:09.189Z,99375.78
2018-01-31T18:55:36.711Z,99384.20
2018-01-31T18:58:04.303Z,99370.17
2018-01-31T19:00:31.886Z,99370.56
2018-01-31T19:02:59.453Z,99361.76
2018-01-31T19:05:27.253Z,99369.76
2018-01-31T19:07:54.928Z,99360.33
2018-01-31T19:10:22.503Z,99356.66
2018-01-31T19:12:50.046Z,99358.10
2018-01-31T19:15:17.593Z,99360.27
2018-01-31T19:17:45.121Z,99354.31
2018-01-31T19:20:12.751Z,99354.10
2018-01-31T19:22:40.412Z,99341.62
2018-01-31T19:25:07.959Z,99339.90
2018-01-31T19:27:35.490Z,99334.97
2018-01-31T19:30:03.383Z,99335.69
2018-01-31T19:32:30.934Z,99344.30
2018-01-31T19:34:58.536Z,99340.81
2018-01-31T19:37:26.357Z,99350.23
2018-01-31T19:39:53.925Z,99343.19
2018-01-31T19:42:21.491Z,99356.91
2018-01-31T19:44:49.354Z,99351.98
2018-01-31T19:47:16.909Z,99359.38
2018-01-31T19:49:44.486Z,99353.02
2018-01-31T19:52:12.050Z,99356.89
2018-01-31T19:54:39.915Z,99348.19
2018-01-31T19:57:07.459Z,99353.58
2018-01-31T19:59:35.346Z,99344.85
2018-01-31T20:02:02.895Z,99343.11
2018-01-31T20:04:30.970Z,99354.73
2018-01-31T20:06:58.493Z,99339.68
2018-01-31T20:09:27.708Z,99317.91
2018-01-31T20:11:55.538Z,99331.80
2018-01-31T20:14:24.220Z,99320.04
2018-01-31T20:16:52.528Z,99316.97
2018-01-31T20:19:21.029Z,99317.86
2018-01-31T20:21:48.550Z,99311.94
2018-01-31T20:24:16.466Z,99317.16
2018-01-31T20:26:44.015Z,99314.91
2018-01-31T20:29:11.592Z,99305.13
2018-01-31T20:31:39.168Z,99317.41
2018-01-31T20:34:07.016Z,99315.57
2018-01-31T20:36:34.577Z,99304.91
2018-01-31T20:39:02.116Z,99322.31
2018-01-31T20:41:29.652Z,99317.94
2018-01-31T20:43:57.171Z,99326.20
2018-01-31T20:46:25.041Z,99330.33
2018-01-31T20:48:52.592Z,99317.33
2018-01-31T20:51:20.116Z,99324.41
2018-01-31T20:53:47.663Z,99320.48
2018-01-31T20:56:15.181Z,99318.56
2018-01-31T20:58:42.718Z,99325.20
2018-01-31T21:01:10.235Z,99314.80
2018-01-31T21:03:37.797Z,99326.34
2018-01-31T21:06:05.614Z,99332.25
2018-01-31T21:08:34.411Z,99332.16
2018-01-31T21:11:01.970Z,99333.73
2018-01-31T21:13:29.505Z,99334.09
2018-01-31T21:15:57.014Z,99322.05
2018-01-31T21:18:24.848Z,99325.27
2018-01-31T21:20:52.436Z,99323.81
2018-01-31T21:23:19.957Z,99312.09
2018-01-31T21:25:47.510Z,99310.31
2018-01-31T21:28:15.039Z,99304.28
2018-01-31T21:30:42.598Z,99304.87
2018-01-31T21:33:10.413Z,99305.59
2018-01-31T21:35:38.026Z,99300.84
2018-01-31T21:38:05.930Z,99306.33
2018-01-31T21:40:33.814Z,99300.94
2018-01-31T21:43:01.422Z,99302.68
2018-01-31T21:45:28.945Z,99293.80
2018-01-31T21:47:56.590Z,99289.73
2018-01-31T21:50:24.164Z,99287.99
2018-01-31T21:52:51.677Z,99282.19
2018-01-31T21:55:19.255Z,99292.69
2018-01-31T21:57:56.162Z,99289.31
2018-01-31T22:00:23.739Z,99291.61
2018-01-31T22:02:52.926Z,99289.39
2018-01-31T22:05:20.471Z,99287.34
2018-01-31T22:07:48.350Z,99281.89
2018-01-31T22:10:15.886Z,99284.86
2018-01-31T22:12:43.438Z,99288.15
2018-01-31T22:17:50.529Z,99272.31
2018-01-31T22:20:18.370Z,99278.17
2018-01-31T22:22:45.921Z,99275.75
2018-01-31T22:25:13.457Z,99270.54
2018-01-31T22:27:41.016Z,99270.62
2018-01-31T22:30:08.566Z,99275.06
2018-01-31T22:32:36.111Z,99278.17
2018-01-31T22:35:03.648Z,99280.50
2018-01-31T22:37:31.238Z,99281.33
2018-01-31T22:39:58.784Z,99289.92
2018-01-31T22:42:26.586Z,99282.64
2018-01-31T22:44:54.111Z,99286.41
2018-01-31T22:47:21.664Z,99290.88
2018-01-31T22:49:49.198Z,99294.73
2018-01-31T22:52:16.734Z,99306.44
2018-01-31T22:54:44.249Z,99304.95
2018-01-31T22:57:11.798Z,99303.73
2018-01-31T22:59:39.319Z,99298.44
2018-01-31T23:02:07.047Z,99310.09
2018-01-31T23:04:34.618Z,99303.52
2018-01-31T23:07:02.437Z,99303.23
2018-01-31T23:09:29.977Z,99299.14
2018-01-31T23:11:57.526Z,99305.78
2018-01-31T23:14:30.741Z,99320.59
2018-01-31T23:16:58.252Z,99312.08
2018-01-31T23:19:25.778Z,99311.67
2018-01-31T23:21:53.305Z,99308.31
2018-01-31T23:24:20.875Z,99307.87
2018-01-31T23:26:48.406Z,99314.66
2018-01-31T23:29:15.913Z,99319.97
2018-01-31T23:31:43.460Z,99313.93
2018-01-31T23:34:11.300Z,99320.56
2018-01-31T23:36:38.815Z,99315.58
2018-01-31T23:39:06.346Z,99312.28
2018-01-31T23:41:33.896Z,99310.48
2018-01-31T23:44:01.754Z,99310.38
2018-01-31T23:46:29.272Z,99312.63
2018-01-31T23:48:56.820Z,99320.12
2018-01-31T23:51:24.358Z,99325.97
2018-01-31T23:53:52.194Z,99335.17
2018-01-31T23:56:19.747Z,99341.77
2018-01-31T23:58:47.298Z,99336.59
